createdAt,value
2022-10-23T00:01:43.999Z,5.97
2022-10-23T00:04:21.270Z,7.03
2022-10-23T00:06:49.902Z,8.25
2022-10-23T00:09:21.633Z,7.50
2022-10-23T00:11:50.737Z,9.05
2022-10-23T00:14:23.831Z,8.57
2022-10-23T00:16:51.686Z,9.18
2022-10-23T00:19:18.738Z,8.48
2022-10-23T00:21:45.774Z,9.65
2022-10-23T00:24:12.844Z,9.65
2022-10-23T00:26:40.707Z,9.25
2022-10-23T00:29:08.727Z,9.07
2022-10-23T00:31:36.759Z,10.18
2022-10-23T00:34:04.236Z,10.90
2022-10-23T00:36:31.518Z,10.60
2022-10-23T00:38:58.530Z,12.38
2022-10-23T00:41:29.202Z,12.57
2022-10-23T00:44:09.188Z,11.23
2022-10-23T00:46:38.678Z,9.65
2022-10-23T00:49:06.538Z,10.93
2022-10-23T00:51:45.153Z,12.07
2022-10-23T00:54:29.683Z,11.55
2022-10-23T00:57:00.217Z,11.50
2022-10-23T00:59:28.324Z,10.43
2022-10-23T01:01:55.691Z,9.98
2022-10-23T01:04:24.167Z,11.95
2022-10-23T01:07:15.589Z,10.77
2022-10-23T01:10:14.788Z,10.90
2022-10-23T01:13:04.627Z,9.65
2022-10-23T01:15:53.486Z,10.27
2022-10-23T01:18:28.005Z,9.68
2022-10-23T01:21:19.171Z,11.52
2022-10-23T01:24:37.530Z,10.40
2022-10-23T01:27:27.824Z,10.93
2022-10-23T01:30:04.129Z,10.95
2022-10-23T01:33:08.807Z,9.95
2022-10-23T01:36:11.581Z,9.57
2022-10-23T01:38:45.285Z,9.52
2022-10-23T01:41:33.600Z,8.25
2022-10-23T01:46:53.911Z,7.97
2022-10-23T01:49:23.088Z,8.23
2022-10-23T01:52:02.355Z,8.37
2022-10-23T01:54:34.658Z,8.07
2022-10-23T01:57:03.582Z,7.63
2022-10-23T01:59:42.182Z,7.63
2022-10-23T02:02:13.404Z,7.57
2022-10-23T02:05:02.325Z,8.40
2022-10-23T02:07:30.336Z,7.07
2022-10-23T02:09:58.075Z,7.47
2022-10-23T02:12:55.872Z,7.70
2022-10-23T02:15:36.439Z,7.20
2022-10-23T02:18:09.723Z,7.97
2022-10-23T02:23:21.619Z,7.32
2022-10-23T02:26:08.248Z,7.28
2022-10-23T02:28:44.159Z,7.22
2022-10-23T02:31:17.315Z,7.38
2022-10-23T02:33:46.969Z,7.40
2022-10-23T02:36:16.098Z,7.32
2022-10-23T02:38:45.108Z,7.43
2022-10-23T02:41:43.659Z,7.75
2022-10-23T02:44:37.765Z,6.20
2022-10-23T02:47:26.650Z,7.32
2022-10-23T02:50:18.766Z,6.95
2022-10-23T02:53:00.004Z,7.13
2022-10-23T02:55:45.173Z,6.00
2022-10-23T02:58:27.811Z,6.40
2022-10-23T03:01:06.178Z,6.25
2022-10-23T03:03:42.052Z,7.13
2022-10-23T03:06:09.137Z,7.18
2022-10-23T03:08:53.471Z,6.00
2022-10-23T03:11:21.001Z,8.35
2022-10-23T03:13:49.511Z,7.82
2022-10-23T03:16:16.492Z,8.00
2022-10-23T03:18:49.537Z,8.37
2022-10-23T03:21:17.596Z,7.57
2022-10-23T03:23:44.555Z,7.80
2022-10-23T03:26:17.185Z,7.65
2022-10-23T03:28:44.149Z,7.80
2022-10-23T03:31:11.994Z,6.88
2022-10-23T03:33:40.055Z,7.18
2022-10-23T03:36:10.174Z,6.97
2022-10-23T03:38:37.177Z,8.32
2022-10-23T03:41:05.383Z,6.93
2022-10-23T03:43:32.365Z,6.95
2022-10-23T03:45:59.275Z,7.82
2022-10-23T03:48:26.566Z,7.25
2022-10-23T03:50:57.697Z,7.57
2022-10-23T03:53:24.677Z,7.55
2022-10-23T03:55:51.633Z,6.53
2022-10-23T03:58:18.564Z,7.07
2022-10-23T04:00:46.135Z,7.22
2022-10-23T04:03:13.002Z,7.40
2022-10-23T04:05:42.496Z,7.18
2022-10-23T04:08:10.604Z,7.90
2022-10-23T04:10:37.990Z,7.55
2022-10-23T04:13:05.020Z,7.90
2022-10-23T04:15:35.565Z,8.32
2022-10-23T04:18:02.911Z,7.97
2022-10-23T04:20:33.093Z,7.68
2022-10-23T04:23:02.511Z,7.85
2022-10-23T04:25:29.539Z,7.38
2022-10-23T04:27:56.417Z,8.60
2022-10-23T04:30:23.367Z,7.70
2022-10-23T04:32:51.848Z,8.07
2022-10-23T04:35:19.629Z,8.20
2022-10-23T04:37:46.739Z,9.32
2022-10-23T04:40:13.742Z,8.35
2022-10-23T04:42:40.954Z,8.65
2022-10-23T04:45:08.634Z,9.52
2022-10-23T04:47:35.886Z,8.70
2022-10-23T04:50:03.804Z,8.52
2022-10-23T04:52:57.885Z,9.20
2022-10-23T04:55:27.922Z,8.10
2022-10-23T04:58:15.086Z,9.15
2022-10-23T05:00:44.103Z,9.32
2022-10-23T05:03:15.221Z,9.32
2022-10-23T05:05:42.857Z,7.97
2022-10-23T05:08:29.460Z,9.10
2022-10-23T05:11:15.201Z,9.25
2022-10-23T05:13:45.920Z,9.43
2022-10-23T05:16:31.849Z,9.55
2022-10-23T05:19:00.213Z,9.15
2022-10-23T05:21:30.274Z,9.38
2022-10-23T05:26:32.599Z,10.20
2022-10-23T05:29:05.176Z,9.20
2022-10-23T05:31:35.348Z,10.95
2022-10-23T05:34:13.424Z,9.88
2022-10-23T05:36:44.877Z,9.65
2022-10-23T05:39:13.458Z,10.15
2022-10-23T05:41:40.510Z,9.77
2022-10-23T05:44:07.439Z,10.05
2022-10-23T05:47:02.454Z,11.27
2022-10-23T05:49:38.227Z,10.15
2022-10-23T05:52:14.342Z,9.25
2022-10-23T05:54:52.349Z,9.70
2022-10-23T05:57:37.683Z,11.13
2022-10-23T06:00:09.288Z,10.40
2022-10-23T06:02:42.034Z,9.45
2022-10-23T06:05:22.773Z,10.02
2022-10-23T06:08:19.418Z,9.95
2022-10-23T06:10:50.560Z,10.25
2022-10-23T06:13:18.829Z,9.82
2022-10-23T06:15:46.157Z,10.48
2022-10-23T06:18:25.414Z,10.38
2022-10-23T06:21:01.690Z,10.18
2022-10-23T06:23:32.631Z,10.05
2022-10-23T06:26:25.991Z,10.98
2022-10-23T06:29:05.284Z,9.57
2022-10-23T06:31:32.426Z,10.35
2022-10-23T06:34:00.108Z,9.82
2022-10-23T06:36:29.408Z,10.10
2022-10-23T06:39:07.257Z,9.73
2022-10-23T06:42:09.329Z,10.00
2022-10-23T06:45:07.215Z,10.52
2022-10-23T06:47:54.594Z,9.48
2022-10-23T06:50:40.252Z,10.23
2022-10-23T06:53:12.560Z,8.43
2022-10-23T06:55:45.330Z,8.83
2022-10-23T06:58:12.532Z,9.07
2022-10-23T07:00:55.217Z,9.25
2022-10-23T07:03:22.567Z,7.88
2022-10-23T07:05:49.749Z,9.25
2022-10-23T07:08:16.753Z,9.32
2022-10-23T07:10:47.978Z,10.52
2022-10-23T07:13:16.482Z,11.05
2022-10-23T07:16:19.779Z,9.38
2022-10-23T07:18:58.705Z,10.80
2022-10-23T07:21:34.855Z,8.93
2022-10-23T07:24:22.173Z,8.88
2022-10-23T07:29:17.493Z,9.63
2022-10-23T07:31:44.472Z,8.60
2022-10-23T07:34:31.712Z,9.57
2022-10-23T07:37:30.065Z,8.73
2022-10-23T07:39:59.277Z,8.32
2022-10-23T07:42:26.293Z,8.40
2022-10-23T07:44:53.716Z,8.65
2022-10-23T07:47:21.814Z,8.30
2022-10-23T07:49:51.389Z,8.88
2022-10-23T07:52:20.415Z,9.50
2022-10-23T07:55:22.606Z,9.13
2022-10-23T07:58:08.049Z,8.88
2022-10-23T08:00:41.467Z,9.00
2022-10-23T08:03:16.628Z,9.27
2022-10-23T08:05:44.606Z,9.38
2022-10-23T08:08:11.866Z,9.52
2022-10-23T08:10:41.776Z,10.27
2022-10-23T08:13:14.135Z,9.60
2022-10-23T08:15:56.783Z,10.35
2022-10-23T08:18:45.385Z,9.90
2022-10-23T08:21:12.686Z,9.52
2022-10-23T08:23:39.832Z,10.50
2022-10-23T08:26:08.395Z,10.43
2022-10-23T08:28:36.248Z,9.77
2022-10-23T08:31:16.834Z,9.50
2022-10-23T08:33:59.403Z,9.52
2022-10-23T08:36:29.071Z,11.73
2022-10-23T08:38:58.211Z,9.75
2022-10-23T08:41:37.686Z,8.20
2022-10-23T08:44:41.815Z,8.90
2022-10-23T08:47:20.294Z,8.95
2022-10-23T08:50:19.917Z,8.82
2022-10-23T08:53:00.441Z,9.48
2022-10-23T08:55:35.761Z,8.05
2022-10-23T08:58:15.277Z,9.38
2022-10-23T09:00:45.429Z,8.88
2022-10-23T09:03:13.480Z,8.02
2022-10-23T09:06:12.381Z,9.48
2022-10-23T09:09:23.931Z,8.30
2022-10-23T09:12:07.388Z,7.47
2022-10-23T09:15:16.514Z,9.00
2022-10-23T09:17:44.459Z,8.65
2022-10-23T09:20:25.806Z,9.50
2022-10-23T09:22:59.659Z,8.90
2022-10-23T09:28:04.270Z,8.35
2022-10-23T09:30:42.528Z,9.18
2022-10-23T09:33:24.163Z,9.35
2022-10-23T09:36:01.578Z,9.20
2022-10-23T09:38:46.628Z,9.10
2022-10-23T09:41:20.582Z,8.20
2022-10-23T09:44:07.650Z,8.52
2022-10-23T09:46:45.314Z,10.20
2022-10-23T09:49:22.244Z,8.10
2022-10-23T09:52:05.007Z,9.85
2022-10-23T09:54:38.268Z,8.95
2022-10-23T09:57:38.370Z,7.50
2022-10-23T10:00:17.179Z,8.23
2022-10-23T10:03:00.365Z,9.00
2022-10-23T10:06:03.126Z,7.72
2022-10-23T10:09:02.081Z,8.15
2022-10-23T10:11:44.680Z,8.23
2022-10-23T10:14:42.640Z,9.85
2022-10-23T10:17:48.028Z,8.70
2022-10-23T10:20:29.096Z,8.48
2022-10-23T10:23:07.045Z,8.65
2022-10-23T10:26:23.161Z,7.68
2022-10-23T10:29:25.951Z,8.43
2022-10-23T10:32:46.517Z,7.55
2022-10-23T10:35:46.075Z,7.57
2022-10-23T10:38:45.689Z,7.82
2022-10-23T10:42:02.057Z,7.53
2022-10-23T10:45:00.153Z,7.35
2022-10-23T10:48:18.266Z,7.13
2022-10-23T10:51:19.063Z,7.47
2022-10-23T10:54:08.555Z,7.88
2022-10-23T10:56:40.076Z,8.27
2022-10-23T10:59:38.243Z,7.25
2022-10-23T11:02:34.427Z,6.93
2022-10-23T11:05:19.557Z,7.07
2022-10-23T11:07:59.937Z,7.88
2022-10-23T11:10:28.682Z,7.50
2022-10-23T11:12:55.932Z,7.32
2022-10-23T11:15:30.821Z,7.68
2022-10-23T11:18:02.666Z,8.05
2022-10-23T11:23:35.879Z,7.07
2022-10-23T11:26:36.741Z,7.82
2022-10-23T11:29:16.578Z,7.18
2022-10-23T11:32:07.354Z,7.80
2022-10-23T11:34:51.978Z,6.65
2022-10-23T11:37:24.576Z,6.95
2022-10-23T11:40:13.144Z,7.43
2022-10-23T11:42:40.280Z,7.15
2022-10-23T11:45:36.474Z,8.13
2022-10-23T11:48:06.710Z,7.82
2022-10-23T11:50:46.198Z,8.38
2022-10-23T11:53:31.461Z,7.82
2022-10-23T11:56:06.740Z,8.95
2022-10-23T11:58:49.241Z,7.68
2022-10-23T12:01:26.216Z,6.90
2022-10-23T12:04:13.764Z,6.85
2022-10-23T12:06:46.011Z,7.18
2022-10-23T12:09:45.269Z,8.20
2022-10-23T12:12:12.248Z,7.40
2022-10-23T12:14:48.010Z,8.45
2022-10-23T12:17:23.735Z,8.82
2022-10-23T12:20:12.574Z,8.20
2022-10-23T12:23:23.790Z,7.85
2022-10-23T12:26:11.188Z,7.32
2022-10-23T12:29:07.456Z,8.45
2022-10-23T12:31:48.043Z,8.18
2022-10-23T12:35:03.511Z,7.30
2022-10-23T12:38:15.410Z,8.07
2022-10-23T12:41:01.609Z,9.10
2022-10-23T12:43:35.261Z,9.45
2022-10-23T12:46:28.282Z,6.47
2022-10-23T12:49:04.067Z,7.55
2022-10-23T12:51:35.854Z,8.52
2022-10-23T12:54:04.422Z,7.57
2022-10-23T12:56:39.112Z,8.13
2022-10-23T12:59:17.103Z,8.07
2022-10-23T13:01:46.889Z,7.30
2022-10-23T13:04:35.081Z,7.63
2022-10-23T13:07:03.906Z,8.07
2022-10-23T13:09:39.994Z,7.22
2022-10-23T13:12:31.358Z,7.53
2022-10-23T13:15:16.210Z,7.43
2022-10-23T13:17:47.574Z,8.02
2022-10-23T13:20:17.839Z,6.80
2022-10-23T13:22:48.229Z,7.95
2022-10-23T13:25:27.423Z,7.70
2022-10-23T13:28:16.372Z,7.80
2022-10-23T13:30:48.211Z,7.63
2022-10-23T13:33:31.277Z,7.03
2022-10-23T13:36:03.161Z,8.38
2022-10-23T13:38:36.635Z,8.05
2022-10-23T13:41:11.802Z,7.22
2022-10-23T13:43:38.901Z,7.07
2022-10-23T13:48:38.333Z,8.48
2022-10-23T13:51:20.744Z,8.00
2022-10-23T13:53:48.169Z,7.78
2022-10-23T13:56:18.535Z,7.53
2022-10-23T13:58:46.413Z,8.85
2022-10-23T14:01:33.478Z,6.85
2022-10-23T14:04:00.610Z,9.07
2022-10-23T14:06:27.807Z,7.47
2022-10-23T14:08:54.788Z,7.13
2022-10-23T14:11:22.430Z,7.35
2022-10-23T14:13:52.990Z,8.48
2022-10-23T14:16:21.542Z,6.75
2022-10-23T14:18:49.130Z,6.50
2022-10-23T14:21:20.213Z,6.72
2022-10-23T14:23:48.600Z,6.63
2022-10-23T14:26:20.046Z,8.25
2022-10-23T14:28:47.955Z,7.78
2022-10-23T14:31:17.498Z,7.40
2022-10-23T14:33:46.359Z,7.35
2022-10-23T14:36:14.016Z,6.43
2022-10-23T14:38:41.075Z,7.10
2022-10-23T14:41:13.705Z,7.20
2022-10-23T14:43:40.914Z,7.38
2022-10-23T14:46:17.179Z,7.28
2022-10-23T14:48:46.300Z,7.22
2022-10-23T14:51:18.627Z,7.53
2022-10-23T14:53:46.871Z,6.35
2022-10-23T14:56:15.320Z,7.30
2022-10-23T14:58:43.404Z,6.57
2022-10-23T15:01:11.023Z,6.32
2022-10-23T15:03:38.685Z,6.57
2022-10-23T15:06:07.238Z,7.05
2022-10-23T15:08:35.401Z,6.78
2022-10-23T15:11:07.687Z,6.25
2022-10-23T15:13:37.538Z,6.90
2022-10-23T15:16:08.419Z,6.40
2022-10-23T15:21:09.732Z,8.43
2022-10-23T15:23:41.257Z,6.57
2022-10-23T15:26:13.261Z,6.75
2022-10-23T15:28:40.829Z,6.25
2022-10-23T15:31:29.614Z,7.03
2022-10-23T15:33:57.711Z,7.70
2022-10-23T15:36:24.816Z,7.60
2022-10-23T15:38:52.770Z,6.22
2022-10-23T15:41:29.780Z,7.00
2022-10-23T15:43:59.303Z,6.43
2022-10-23T15:46:26.712Z,7.28
2022-10-23T15:48:54.410Z,6.32
2022-10-23T15:51:21.874Z,7.38
2022-10-23T15:53:49.216Z,6.90
2022-10-23T15:56:16.215Z,5.70
2022-10-23T15:58:43.528Z,5.78
2022-10-23T16:01:10.848Z,6.13
2022-10-23T16:03:39.058Z,6.93
2022-10-23T16:06:13.474Z,5.78
2022-10-23T16:08:41.241Z,5.50
2022-10-23T16:11:27.744Z,5.72
2022-10-23T16:13:56.731Z,8.45
2022-10-23T16:16:24.394Z,7.90
2022-10-23T16:18:51.697Z,8.38
2022-10-23T16:21:24.423Z,6.72
2022-10-23T16:23:53.177Z,7.35
2022-10-23T16:26:20.855Z,7.40
2022-10-23T16:28:49.992Z,7.22
2022-10-23T16:31:20.681Z,7.65
2022-10-23T16:33:48.488Z,7.85
2022-10-23T16:36:16.155Z,7.80
2022-10-23T16:39:03.698Z,9.60
2022-10-23T16:41:49.334Z,7.00
2022-10-23T16:44:20.709Z,7.25
2022-10-23T16:47:09.751Z,7.85
2022-10-23T16:49:38.351Z,7.38
2022-10-23T16:52:06.566Z,8.77
2022-10-23T16:54:36.402Z,6.97
2022-10-23T16:57:04.164Z,8.10
2022-10-23T16:59:31.404Z,8.75
2022-10-23T17:01:58.728Z,9.35
2022-10-23T17:04:25.726Z,8.63
2022-10-23T17:06:52.662Z,8.18
2022-10-23T17:09:19.572Z,8.98
2022-10-23T17:11:47.980Z,9.35
2022-10-23T17:14:21.070Z,8.40
2022-10-23T17:16:51.640Z,9.32
2022-10-23T17:19:52.055Z,9.63
2022-10-23T17:22:10.858Z,11.48
2022-10-23T17:24:41.181Z,11.60
2022-10-23T17:27:08.472Z,13.95
2022-10-23T17:29:36.162Z,13.48
2022-10-23T17:32:04.183Z,12.63
2022-10-23T17:34:31.561Z,12.65
2022-10-23T17:36:58.501Z,12.93
2022-10-23T17:39:28.920Z,12.10
2022-10-23T17:41:56.610Z,13.05
2022-10-23T17:44:23.937Z,13.20
2022-10-23T17:46:55.777Z,9.93
2022-10-23T17:49:25.007Z,11.75
2022-10-23T17:51:55.478Z,11.07
2022-10-23T17:54:25.067Z,11.10
2022-10-23T17:56:52.340Z,11.70
2022-10-23T17:59:19.814Z,12.07
2022-10-23T18:04:30.034Z,12.35
2022-10-23T18:06:57.340Z,12.23
2022-10-23T18:09:24.516Z,11.43
2022-10-23T18:11:52.816Z,12.45
2022-10-23T18:14:21.682Z,12.07
2022-10-23T18:16:49.449Z,11.32
2022-10-23T18:19:18.280Z,12.32
2022-10-23T18:21:47.349Z,10.75
2022-10-23T18:24:15.521Z,12.30
2022-10-23T18:26:43.033Z,11.43
2022-10-23T18:29:11.981Z,13.68
2022-10-23T18:31:40.298Z,12.95
2022-10-23T18:34:19.707Z,11.60
2022-10-23T18:36:48.246Z,12.43
2022-10-23T18:39:22.263Z,11.57
2022-10-23T18:41:55.515Z,11.93
2022-10-23T18:44:24.107Z,11.23
2022-10-23T18:46:51.715Z,11.00
2022-10-23T18:49:20.209Z,11.93
2022-10-23T18:51:47.411Z,12.73
2022-10-23T18:54:17.853Z,14.13
2022-10-23T18:56:45.352Z,13.38
2022-10-23T18:59:18.718Z,14.38
2022-10-23T19:01:45.966Z,15.02
2022-10-23T19:04:15.826Z,14.50
2022-10-23T19:06:43.444Z,16.00
2022-10-23T19:09:14.051Z,12.65
2022-10-23T19:11:42.574Z,13.40
2022-10-23T19:14:10.198Z,15.93
2022-10-23T19:16:51.251Z,15.85
2022-10-23T19:19:24.649Z,16.77
2022-10-23T19:21:53.853Z,16.70
2022-10-23T19:24:27.091Z,18.63
2022-10-23T19:26:54.679Z,19.42
2022-10-23T19:29:26.621Z,17.60
2022-10-23T19:31:53.768Z,19.83
2022-10-23T19:34:22.930Z,18.80
2022-10-23T19:36:51.116Z,19.45
2022-10-23T19:39:18.678Z,19.10
2022-10-23T19:41:46.220Z,18.15
2022-10-23T19:44:14.818Z,14.93
2022-10-23T19:46:43.189Z,18.13
2022-10-23T19:49:12.055Z,20.02
2022-10-23T19:51:39.445Z,17.17
2022-10-23T19:54:06.776Z,17.95
2022-10-23T19:56:33.753Z,19.45
2022-10-23T19:59:01.155Z,18.02
2022-10-23T20:01:28.624Z,17.13
2022-10-23T20:03:56.031Z,17.98
2022-10-23T20:06:26.992Z,16.80
2022-10-23T20:08:54.846Z,16.67
2022-10-23T20:11:29.425Z,18.20
2022-10-23T20:13:59.742Z,17.23
2022-10-23T20:16:34.619Z,17.92
2022-10-23T20:19:07.262Z,18.25
2022-10-23T20:21:40.131Z,18.50
2022-10-23T20:24:08.640Z,20.00
2022-10-23T20:26:36.253Z,18.13
2022-10-23T20:29:03.650Z,17.05
2022-10-23T20:31:30.645Z,17.23
2022-10-23T20:33:57.550Z,15.93
2022-10-23T20:36:34.930Z,17.73
2022-10-23T20:39:06.897Z,17.15
2022-10-23T20:41:36.853Z,18.42
2022-10-23T20:44:09.670Z,18.15
2022-10-23T20:46:37.884Z,20.17
2022-10-23T20:49:04.933Z,18.42
2022-10-23T20:51:32.020Z,18.67
2022-10-23T20:53:59.122Z,18.13
2022-10-23T20:56:36.168Z,18.48
2022-10-23T20:59:07.498Z,19.00
2022-10-23T21:01:35.342Z,19.90
2022-10-23T21:04:03.766Z,21.02
2022-10-23T21:06:46.256Z,19.98
2022-10-23T21:09:24.197Z,20.65
2022-10-23T21:11:51.304Z,20.80
2022-10-23T21:14:18.357Z,18.40
2022-10-23T21:16:46.620Z,18.80
2022-10-23T21:19:16.004Z,19.15
2022-10-23T21:21:44.254Z,18.80
2022-10-23T21:24:16.420Z,19.20
2022-10-23T21:26:45.217Z,19.58
2022-10-23T21:29:20.855Z,20.23
2022-10-23T21:31:57.724Z,20.15
2022-10-23T21:34:26.385Z,20.13
2022-10-23T21:37:12.533Z,19.65
2022-10-23T21:39:42.022Z,21.15
2022-10-23T21:42:09.860Z,21.45
2022-10-23T21:44:36.987Z,19.73
2022-10-23T21:47:04.560Z,21.92
2022-10-23T21:49:32.207Z,20.00
2022-10-23T21:51:59.181Z,20.88
2022-10-23T21:54:26.469Z,20.08
2022-10-23T21:56:53.960Z,20.60
2022-10-23T21:59:27.876Z,19.88
2022-10-23T22:01:57.596Z,19.48
2022-10-23T22:04:24.741Z,20.20
2022-10-23T22:06:51.764Z,19.35
2022-10-23T22:09:21.600Z,19.35
2022-10-23T22:11:53.427Z,17.98
2022-10-23T22:14:21.716Z,18.77
2022-10-23T22:16:49.378Z,16.92
2022-10-23T22:19:18.596Z,16.55
2022-10-23T22:21:47.844Z,15.00
2022-10-23T22:24:16.044Z,16.23
2022-10-23T22:26:53.298Z,16.58
2022-10-23T22:29:25.682Z,15.93
2022-10-23T22:31:53.079Z,14.45
2022-10-23T22:34:41.180Z,15.23
2022-10-23T22:37:12.482Z,14.27
2022-10-23T22:39:40.478Z,15.35
2022-10-23T22:42:08.016Z,13.90
2022-10-23T22:44:34.942Z,13.70
2022-10-23T22:47:02.595Z,15.23
2022-10-23T22:49:29.870Z,14.60
2022-10-23T22:51:56.827Z,14.23
2022-10-23T22:54:24.151Z,13.57
2022-10-23T22:56:51.270Z,15.02
2022-10-23T22:59:18.419Z,15.05
2022-10-23T23:01:48.041Z,14.65
2022-10-23T23:04:37.858Z,13.18
2022-10-23T23:07:10.490Z,16.23
2022-10-23T23:09:44.119Z,14.98
2022-10-23T23:12:13.910Z,15.35
2022-10-23T23:14:41.457Z,15.32
2022-10-23T23:17:09.529Z,14.88
2022-10-23T23:19:37.244Z,14.98
2022-10-23T23:22:05.012Z,14.68
2022-10-23T23:24:32.162Z,16.20
2022-10-23T23:26:59.463Z,16.88
2022-10-23T23:29:28.327Z,16.58
2022-10-23T23:31:55.346Z,15.48
2022-10-23T23:34:22.240Z,16.48
2022-10-23T23:36:49.211Z,16.58
2022-10-23T23:39:16.096Z,16.00
2022-10-23T23:41:43.265Z,18.10
2022-10-23T23:44:10.430Z,17.15
2022-10-23T23:46:37.566Z,17.67
2022-10-23T23:49:04.630Z,16.33
2022-10-23T23:51:31.759Z,15.82
2022-10-23T23:53:58.695Z,16.83
2022-10-23T23:56:25.646Z,17.08
2022-10-23T23:58:52.809Z,15.90
